sensor_id;sensor_type;location;lat;lon;timestamp;temperature;humidity
70076;DHT22;63241;51.056;3.698;2022-09-09T00:02:18;15.10;99.90
70076;DHT22;63241;51.056;3.698;2022-09-09T00:08:42;15.30;99.90
70076;DHT22;63241;51.056;3.698;2022-09-09T00:12:05;15.30;99.90
70076;DHT22;63241;51.056;3.698;2022-09-09T00:20:50;15.10;99.90
70076;DHT22;63241;51.056;3.698;2022-09-09T00:23:40;15.20;99.90
70076;DHT22;63241;51.056;3.698;2022-09-09T00:26:35;15.20;99.90
70076;DHT22;63241;51.056;3.698;2022-09-09T00:32:17;15.20;99.90
70076;DHT22;63241;51.056;3.698;2022-09-09T00:35:24;15.20;99.90
70076;DHT22;63241;51.056;3.698;2022-09-09T00:44:34;15.00;99.90
70076;DHT22;63241;51.056;3.698;2022-09-09T00:47:48;15.00;99.90
70076;DHT22;63241;51.056;3.698;2022-09-09T01:00:27;14.90;99.90
70076;DHT22;63241;51.056;3.698;2022-09-09T01:12:47;15.00;99.90
70076;DHT22;63241;51.056;3.698;2022-09-09T01:15:34;15.00;99.90
70076;DHT22;63241;51.056;3.698;2022-09-09T01:18:26;15.00;99.90
70076;DHT22;63241;51.056;3.698;2022-09-09T01:27:20;14.70;99.90
70076;DHT22;63241;51.056;3.698;2022-09-09T01:30:15;14.80;99.90
70076;DHT22;63241;51.056;3.698;2022-09-09T01:33:21;14.80;99.90
70076;DHT22;63241;51.056;3.698;2022-09-09T01:39:17;14.80;99.90
70076;DHT22;63241;51.056;3.698;2022-09-09T01:42:07;14.80;99.90
70076;DHT22;63241;51.056;3.698;2022-09-09T01:44:56;14.80;99.90
70076;DHT22;63241;51.056;3.698;2022-09-09T01:47:46;14.70;99.90
70076;DHT22;63241;51.056;3.698;2022-09-09T01:53:45;14.70;99.90
70076;DHT22;63241;51.056;3.698;2022-09-09T02:00:10;14.70;99.90
70076;DHT22;63241;51.056;3.698;2022-09-09T02:03:03;14.70;99.90
70076;DHT22;63241;51.056;3.698;2022-09-09T02:06:11;14.70;99.90
70076;DHT22;63241;51.056;3.698;2022-09-09T02:08:56;14.70;99.90
70076;DHT22;63241;51.056;3.698;2022-09-09T02:11:48;14.60;99.90
70076;DHT22;63241;51.056;3.698;2022-09-09T02:14:39;14.60;99.90
70076;DHT22;63241;51.056;3.698;2022-09-09T02:17:28;14.60;99.90
70076;DHT22;63241;51.056;3.698;2022-09-09T02:20:18;14.70;99.90
70076;DHT22;63241;51.056;3.698;2022-09-09T02:23:08;14.80;99.90
70076;DHT22;63241;51.056;3.698;2022-09-09T02:25:59;14.70;99.90
70076;DHT22;63241;51.056;3.698;2022-09-09T02:31:18;14.80;99.90
70076;DHT22;63241;51.056;3.698;2022-09-09T02:34:08;14.90;99.90
70076;DHT22;63241;51.056;3.698;2022-09-09T02:36:57;15.00;99.90
70076;DHT22;63241;51.056;3.698;2022-09-09T02:39:47;15.00;99.90
70076;DHT22;63241;51.056;3.698;2022-09-09T02:42:54;15.10;99.90
70076;DHT22;63241;51.056;3.698;2022-09-09T02:45:56;15.10;99.90
70076;DHT22;63241;51.056;3.698;2022-09-09T02:48:56;15.20;99.90
70076;DHT22;63241;51.056;3.698;2022-09-09T02:52:02;15.20;99.80
70076;DHT22;63241;51.056;3.698;2022-09-09T02:54:52;15.30;99.70
70076;DHT22;63241;51.056;3.698;2022-09-09T02:57:41;15.30;99.30
70076;DHT22;63241;51.056;3.698;2022-09-09T03:00:30;15.30;99.50
70076;DHT22;63241;51.056;3.698;2022-09-09T03:03:18;15.20;99.70
70076;DHT22;63241;51.056;3.698;2022-09-09T03:06:05;15.20;99.60
70076;DHT22;63241;51.056;3.698;2022-09-09T03:08:52;15.10;99.90
70076;DHT22;63241;51.056;3.698;2022-09-09T03:11:41;15.10;99.90
70076;DHT22;63241;51.056;3.698;2022-09-09T03:14:10;15.10;99.90
70076;DHT22;63241;51.056;3.698;2022-09-09T03:16:58;15.10;99.90
70076;DHT22;63241;51.056;3.698;2022-09-09T03:19:46;15.10;99.90
70076;DHT22;63241;51.056;3.698;2022-09-09T03:22:34;15.20;99.90
70076;DHT22;63241;51.056;3.698;2022-09-09T03:25:22;15.20;99.90
70076;DHT22;63241;51.056;3.698;2022-09-09T03:28:10;15.20;99.90
70076;DHT22;63241;51.056;3.698;2022-09-09T03:31:04;15.20;99.80
70076;DHT22;63241;51.056;3.698;2022-09-09T03:33:51;15.20;99.70
70076;DHT22;63241;51.056;3.698;2022-09-09T03:36:41;15.40;99.20
70076;DHT22;63241;51.056;3.698;2022-09-09T03:39:28;15.40;99.30
70076;DHT22;63241;51.056;3.698;2022-09-09T03:42:16;15.50;98.90
70076;DHT22;63241;51.056;3.698;2022-09-09T03:45:06;15.60;98.20
70076;DHT22;63241;51.056;3.698;2022-09-09T03:47:54;15.60;98.10
70076;DHT22;63241;51.056;3.698;2022-09-09T03:50:46;15.60;98.40
70076;DHT22;63241;51.056;3.698;2022-09-09T03:53:38;15.60;98.40
70076;DHT22;63241;51.056;3.698;2022-09-09T03:56:26;15.70;98.00
70076;DHT22;63241;51.056;3.698;2022-09-09T03:59:12;15.70;97.60
70076;DHT22;63241;51.056;3.698;2022-09-09T04:02:00;15.80;97.40
70076;DHT22;63241;51.056;3.698;2022-09-09T04:04:50;15.80;97.50
70076;DHT22;63241;51.056;3.698;2022-09-09T04:07:38;15.80;97.40
70076;DHT22;63241;51.056;3.698;2022-09-09T04:10:28;15.70;97.30
70076;DHT22;63241;51.056;3.698;2022-09-09T04:13:17;15.70;97.30
70076;DHT22;63241;51.056;3.698;2022-09-09T04:16:05;15.60;97.10
70076;DHT22;63241;51.056;3.698;2022-09-09T04:18:53;15.70;97.50
70076;DHT22;63241;51.056;3.698;2022-09-09T04:21:41;15.70;97.20
70076;DHT22;63241;51.056;3.698;2022-09-09T04:24:29;15.80;97.30
70076;DHT22;63241;51.056;3.698;2022-09-09T04:26:57;15.80;96.80
70076;DHT22;63241;51.056;3.698;2022-09-09T04:29:45;15.80;96.70
70076;DHT22;63241;51.056;3.698;2022-09-09T04:32:36;15.80;97.00
70076;DHT22;63241;51.056;3.698;2022-09-09T04:35:24;15.80;96.80
70076;DHT22;63241;51.056;3.698;2022-09-09T04:38:11;15.80;96.60
70076;DHT22;63241;51.056;3.698;2022-09-09T04:44:41;15.70;97.10
70076;DHT22;63241;51.056;3.698;2022-09-09T04:47:29;15.70;97.00
70076;DHT22;63241;51.056;3.698;2022-09-09T04:49:58;15.80;96.70
70076;DHT22;63241;51.056;3.698;2022-09-09T04:52:46;15.80;96.50
70076;DHT22;63241;51.056;3.698;2022-09-09T04:55:35;15.70;96.70
70076;DHT22;63241;51.056;3.698;2022-09-09T04:58:23;15.70;96.80
70076;DHT22;63241;51.056;3.698;2022-09-09T05:01:17;15.70;96.90
70076;DHT22;63241;51.056;3.698;2022-09-09T05:04:07;15.70;96.90
70076;DHT22;63241;51.056;3.698;2022-09-09T05:06:55;15.80;96.80
70076;DHT22;63241;51.056;3.698;2022-09-09T05:09:23;15.70;96.60
70076;DHT22;63241;51.056;3.698;2022-09-09T05:12:11;15.70;96.90
70076;DHT22;63241;51.056;3.698;2022-09-09T05:15:09;15.70;97.00
70076;DHT22;63241;51.056;3.698;2022-09-09T05:17:58;15.80;97.20
70076;DHT22;63241;51.056;3.698;2022-09-09T05:20:47;15.80;97.40
70076;DHT22;63241;51.056;3.698;2022-09-09T05:23:36;15.80;97.50
70076;DHT22;63241;51.056;3.698;2022-09-09T05:26:25;15.90;98.10
70076;DHT22;63241;51.056;3.698;2022-09-09T05:29:13;15.90;98.90
70076;DHT22;63241;51.056;3.698;2022-09-09T05:32:03;15.80;99.70
70076;DHT22;63241;51.056;3.698;2022-09-09T05:34:52;15.70;99.90
70076;DHT22;63241;51.056;3.698;2022-09-09T05:37:41;15.70;99.90
70076;DHT22;63241;51.056;3.698;2022-09-09T05:40:09;15.60;99.90
70076;DHT22;63241;51.056;3.698;2022-09-09T05:42:59;15.60;99.90
70076;DHT22;63241;51.056;3.698;2022-09-09T05:45:48;15.60;99.90
70076;DHT22;63241;51.056;3.698;2022-09-09T05:48:38;15.50;99.90
70076;DHT22;63241;51.056;3.698;2022-09-09T05:51:28;15.50;99.90
70076;DHT22;63241;51.056;3.698;2022-09-09T05:54:19;15.50;99.90
70076;DHT22;63241;51.056;3.698;2022-09-09T05:57:08;15.60;99.90
70076;DHT22;63241;51.056;3.698;2022-09-09T05:59:56;15.50;99.90
70076;DHT22;63241;51.056;3.698;2022-09-09T06:02:50;15.60;99.90
70076;DHT22;63241;51.056;3.698;2022-09-09T06:05:35;15.70;99.90
70076;DHT22;63241;51.056;3.698;2022-09-09T06:08:04;15.70;99.90
70076;DHT22;63241;51.056;3.698;2022-09-09T06:10:52;15.70;99.90
70076;DHT22;63241;51.056;3.698;2022-09-09T06:13:40;15.60;99.90
70076;DHT22;63241;51.056;3.698;2022-09-09T06:16:29;15.60;99.90
70076;DHT22;63241;51.056;3.698;2022-09-09T06:19:20;15.60;99.90
70076;DHT22;63241;51.056;3.698;2022-09-09T06:22:08;15.60;99.90
70076;DHT22;63241;51.056;3.698;2022-09-09T06:24:56;15.50;99.90
70076;DHT22;63241;51.056;3.698;2022-09-09T06:27:48;15.40;99.90
70076;DHT22;63241;51.056;3.698;2022-09-09T06:30:38;15.40;99.90
70076;DHT22;63241;51.056;3.698;2022-09-09T06:33:30;15.40;99.90
70076;DHT22;63241;51.056;3.698;2022-09-09T06:36:19;15.40;99.90
70076;DHT22;63241;51.056;3.698;2022-09-09T06:39:08;15.50;99.90
70076;DHT22;63241;51.056;3.698;2022-09-09T06:41:57;15.50;99.90
70076;DHT22;63241;51.056;3.698;2022-09-09T06:44:44;15.60;99.90
70076;DHT22;63241;51.056;3.698;2022-09-09T06:50:41;16.00;99.90
70076;DHT22;63241;51.056;3.698;2022-09-09T06:53:33;16.50;99.90
70076;DHT22;63241;51.056;3.698;2022-09-09T06:56:27;16.70;99.90
70076;DHT22;63241;51.056;3.698;2022-09-09T06:59:15;16.80;99.90
70076;DHT22;63241;51.056;3.698;2022-09-09T07:02:04;17.00;99.90
70076;DHT22;63241;51.056;3.698;2022-09-09T07:04:52;17.50;99.90
70076;DHT22;63241;51.056;3.698;2022-09-09T07:07:39;18.50;99.90
70076;DHT22;63241;51.056;3.698;2022-09-09T07:10:28;19.10;99.80
70076;DHT22;63241;51.056;3.698;2022-09-09T07:13:16;19.50;98.50
70076;DHT22;63241;51.056;3.698;2022-09-09T07:16:05;19.70;95.10
70076;DHT22;63241;51.056;3.698;2022-09-09T07:18:54;19.30;94.00
70076;DHT22;63241;51.056;3.698;2022-09-09T07:21:25;19.00;95.00
70076;DHT22;63241;51.056;3.698;2022-09-09T07:24:14;18.60;96.50
70076;DHT22;63241;51.056;3.698;2022-09-09T07:27:02;18.40;97.30
70076;DHT22;63241;51.056;3.698;2022-09-09T07:29:49;18.20;98.70
70076;DHT22;63241;51.056;3.698;2022-09-09T07:32:37;18.50;98.60
70076;DHT22;63241;51.056;3.698;2022-09-09T07:35:25;18.90;98.30
70076;DHT22;63241;51.056;3.698;2022-09-09T07:38:13;19.50;97.70
70076;DHT22;63241;51.056;3.698;2022-09-09T07:41:10;19.70;94.80
70076;DHT22;63241;51.056;3.698;2022-09-09T07:43:59;19.50;95.60
70076;DHT22;63241;51.056;3.698;2022-09-09T07:46:29;19.30;95.80
70076;DHT22;63241;51.056;3.698;2022-09-09T07:49:17;19.20;95.70
70076;DHT22;63241;51.056;3.698;2022-09-09T07:52:05;18.60;95.20
70076;DHT22;63241;51.056;3.698;2022-09-09T07:54:53;18.20;96.40
70076;DHT22;63241;51.056;3.698;2022-09-09T07:57:41;17.80;98.50
70076;DHT22;63241;51.056;3.698;2022-09-09T08:00:29;17.60;98.60
70076;DHT22;63241;51.056;3.698;2022-09-09T08:03:17;17.30;99.40
70076;DHT22;63241;51.056;3.698;2022-09-09T08:06:08;17.20;99.90
70076;DHT22;63241;51.056;3.698;2022-09-09T08:08:57;17.00;99.90
70076;DHT22;63241;51.056;3.698;2022-09-09T08:11:29;16.80;99.90
70076;DHT22;63241;51.056;3.698;2022-09-09T08:14:20;16.70;99.90
70076;DHT22;63241;51.056;3.698;2022-09-09T08:17:08;16.70;99.90
70076;DHT22;63241;51.056;3.698;2022-09-09T08:19:55;16.60;99.90
70076;DHT22;63241;51.056;3.698;2022-09-09T08:22:43;16.60;99.90
70076;DHT22;63241;51.056;3.698;2022-09-09T08:25:30;16.50;99.90
70076;DHT22;63241;51.056;3.698;2022-09-09T08:28:18;16.50;99.90
70076;DHT22;63241;51.056;3.698;2022-09-09T08:31:08;16.50;99.90
70076;DHT22;63241;51.056;3.698;2022-09-09T08:33:34;16.50;99.90
70076;DHT22;63241;51.056;3.698;2022-09-09T08:36:27;16.40;99.90
70076;DHT22;63241;51.056;3.698;2022-09-09T08:39:16;16.40;99.90
70076;DHT22;63241;51.056;3.698;2022-09-09T08:42:29;16.40;99.90
70076;DHT22;63241;51.056;3.698;2022-09-09T08:45:55;16.40;99.90
70076;DHT22;63241;51.056;3.698;2022-09-09T08:51:54;16.60;99.90
70076;DHT22;63241;51.056;3.698;2022-09-09T08:54:42;16.70;99.90
70076;DHT22;63241;51.056;3.698;2022-09-09T08:57:32;16.80;99.90
70076;DHT22;63241;51.056;3.698;2022-09-09T09:00:25;16.80;99.90
70076;DHT22;63241;51.056;3.698;2022-09-09T09:09:35;16.70;99.90
70076;DHT22;63241;51.056;3.698;2022-09-09T09:12:25;16.70;99.90
70076;DHT22;63241;51.056;3.698;2022-09-09T09:15:36;16.70;99.90
70076;DHT22;63241;51.056;3.698;2022-09-09T09:18:10;16.80;99.90
70076;DHT22;63241;51.056;3.698;2022-09-09T09:21:08;16.90;99.90
70076;DHT22;63241;51.056;3.698;2022-09-09T09:23:44;17.10;99.90
70076;DHT22;63241;51.056;3.698;2022-09-09T09:26:36;17.40;99.90
70076;DHT22;63241;51.056;3.698;2022-09-09T09:29:26;17.70;99.90
70076;DHT22;63241;51.056;3.698;2022-09-09T09:32:17;18.20;99.90
70076;DHT22;63241;51.056;3.698;2022-09-09T09:34:56;18.40;98.60
70076;DHT22;63241;51.056;3.698;2022-09-09T09:37:45;18.90;99.20
70076;DHT22;63241;51.056;3.698;2022-09-09T09:40:33;19.70;95.70
70076;DHT22;63241;51.056;3.698;2022-09-09T09:46:23;19.90;92.50
70076;DHT22;63241;51.056;3.698;2022-09-09T09:49:12;19.70;92.30
70076;DHT22;63241;51.056;3.698;2022-09-09T09:52:04;19.40;94.40
70076;DHT22;63241;51.056;3.698;2022-09-09T09:54:54;19.40;95.00
70076;DHT22;63241;51.056;3.698;2022-09-09T09:57:29;19.40;94.40
70076;DHT22;63241;51.056;3.698;2022-09-09T10:00:34;19.50;93.80
70076;DHT22;63241;51.056;3.698;2022-09-09T10:03:33;19.50;94.10
70076;DHT22;63241;51.056;3.698;2022-09-09T10:06:40;19.50;94.10
70076;DHT22;63241;51.056;3.698;2022-09-09T10:09:31;19.30;94.30
70076;DHT22;63241;51.056;3.698;2022-09-09T10:16:40;19.30;94.70
70076;DHT22;63241;51.056;3.698;2022-09-09T10:19:01;19.50;93.90
70076;DHT22;63241;51.056;3.698;2022-09-09T10:22:24;19.80;93.20
70076;DHT22;63241;51.056;3.698;2022-09-09T10:40:05;20.00;92.00
70076;DHT22;63241;51.056;3.698;2022-09-09T10:55:57;21.90;82.90
70076;DHT22;63241;51.056;3.698;2022-09-09T10:58:47;21.50;85.40
70076;DHT22;63241;51.056;3.698;2022-09-09T11:01:40;21.30;84.40
70076;DHT22;63241;51.056;3.698;2022-09-09T11:08:00;21.70;86.20
70076;DHT22;63241;51.056;3.698;2022-09-09T11:11:13;22.60;86.20
70076;DHT22;63241;51.056;3.698;2022-09-09T11:14:41;22.80;78.20
70076;DHT22;63241;51.056;3.698;2022-09-09T11:17:36;23.50;80.50
70076;DHT22;63241;51.056;3.698;2022-09-09T11:20:38;24.60;74.80
70076;DHT22;63241;51.056;3.698;2022-09-09T11:23:39;25.30;70.80
70076;DHT22;63241;51.056;3.698;2022-09-09T11:26:42;25.50;68.30
70076;DHT22;63241;51.056;3.698;2022-09-09T11:32:57;25.70;66.60
70076;DHT22;63241;51.056;3.698;2022-09-09T11:36:06;25.90;63.50
70076;DHT22;63241;51.056;3.698;2022-09-09T11:38:53;25.50;64.60
70076;DHT22;63241;51.056;3.698;2022-09-09T11:41:43;25.10;66.60
70076;DHT22;63241;51.056;3.698;2022-09-09T11:44:35;25.60;68.30
70076;DHT22;63241;51.056;3.698;2022-09-09T11:49:53;25.80;65.30
70076;DHT22;63241;51.056;3.698;2022-09-09T11:52:45;25.30;64.00
70076;DHT22;63241;51.056;3.698;2022-09-09T11:55:37;24.80;65.40
70076;DHT22;63241;51.056;3.698;2022-09-09T11:58:27;24.40;65.40
70076;DHT22;63241;51.056;3.698;2022-09-09T12:01:35;24.40;70.80
70076;DHT22;63241;51.056;3.698;2022-09-09T12:07:55;24.90;70.20
70076;DHT22;63241;51.056;3.698;2022-09-09T12:10:57;26.10;68.40
70076;DHT22;63241;51.056;3.698;2022-09-09T12:13:56;26.10;63.40
70076;DHT22;63241;51.056;3.698;2022-09-09T12:16:45;25.90;63.70
70076;DHT22;63241;51.056;3.698;2022-09-09T12:19:34;25.70;62.70
70076;DHT22;63241;51.056;3.698;2022-09-09T12:32:01;25.20;64.30
70076;DHT22;63241;51.056;3.698;2022-09-09T12:35:09;25.00;65.10
70076;DHT22;63241;51.056;3.698;2022-09-09T12:37:52;24.70;66.80
70076;DHT22;63241;51.056;3.698;2022-09-09T12:44:03;24.90;65.30
70076;DHT22;63241;51.056;3.698;2022-09-09T12:46:47;25.00;64.20
70076;DHT22;63241;51.056;3.698;2022-09-09T12:49:38;25.00;63.90
70076;DHT22;63241;51.056;3.698;2022-09-09T12:52:35;24.60;63.50
70076;DHT22;63241;51.056;3.698;2022-09-09T12:55:24;24.40;64.90
70076;DHT22;63241;51.056;3.698;2022-09-09T12:58:16;24.30;68.60
70076;DHT22;63241;51.056;3.698;2022-09-09T13:01:06;24.10;66.80
70076;DHT22;63241;51.056;3.698;2022-09-09T13:04:15;23.80;66.80
70076;DHT22;63241;51.056;3.698;2022-09-09T13:07:04;23.60;68.70
70076;DHT22;63241;51.056;3.698;2022-09-09T13:12:39;23.10;70.40
70076;DHT22;63241;51.056;3.698;2022-09-09T13:15:29;23.10;72.50
70076;DHT22;63241;51.056;3.698;2022-09-09T13:18:20;23.10;74.90
70076;DHT22;63241;51.056;3.698;2022-09-09T13:21:08;23.40;76.60
70076;DHT22;63241;51.056;3.698;2022-09-09T13:23:55;24.50;75.70
70076;DHT22;63241;51.056;3.698;2022-09-09T13:26:42;26.10;71.90
70076;DHT22;63241;51.056;3.698;2022-09-09T13:29:31;27.60;63.90
70076;DHT22;63241;51.056;3.698;2022-09-09T13:32:18;28.50;57.10
70076;DHT22;63241;51.056;3.698;2022-09-09T13:35:22;28.90;55.00
70076;DHT22;63241;51.056;3.698;2022-09-09T13:40:21;30.20;50.70
70076;DHT22;63241;51.056;3.698;2022-09-09T13:43:16;30.10;47.70
70076;DHT22;63241;51.056;3.698;2022-09-09T13:46:21;29.30;48.80
70076;DHT22;63241;51.056;3.698;2022-09-09T13:48:59;28.50;49.70
70076;DHT22;63241;51.056;3.698;2022-09-09T13:51:51;27.60;50.40
70076;DHT22;63241;51.056;3.698;2022-09-09T13:54:39;26.80;53.50
70076;DHT22;63241;51.056;3.698;2022-09-09T13:57:27;26.10;55.30
70076;DHT22;63241;51.056;3.698;2022-09-09T14:00:16;25.70;56.70
70076;DHT22;63241;51.056;3.698;2022-09-09T14:06:13;25.20;57.90
70076;DHT22;63241;51.056;3.698;2022-09-09T14:09:01;25.10;58.00
70076;DHT22;63241;51.056;3.698;2022-09-09T14:11:49;24.90;58.00
70076;DHT22;63241;51.056;3.698;2022-09-09T14:14:40;24.70;59.50
70076;DHT22;63241;51.056;3.698;2022-09-09T14:17:29;24.60;59.50
70076;DHT22;63241;51.056;3.698;2022-09-09T14:20:23;24.60;59.50
70076;DHT22;63241;51.056;3.698;2022-09-09T14:23:14;24.50;59.40
70076;DHT22;63241;51.056;3.698;2022-09-09T14:26:01;24.40;59.60
70076;DHT22;63241;51.056;3.698;2022-09-09T14:28:50;24.50;61.00
70076;DHT22;63241;51.056;3.698;2022-09-09T14:34:05;24.90;61.70
70076;DHT22;63241;51.056;3.698;2022-09-09T14:36:52;25.30;63.00
70076;DHT22;63241;51.056;3.698;2022-09-09T14:39:42;25.50;62.30
70076;DHT22;63241;51.056;3.698;2022-09-09T14:42:32;25.40;57.30
70076;DHT22;63241;51.056;3.698;2022-09-09T14:45:20;25.40;59.20
70076;DHT22;63241;51.056;3.698;2022-09-09T14:48:08;25.30;58.70
70076;DHT22;63241;51.056;3.698;2022-09-09T14:50:55;25.00;59.50
70076;DHT22;63241;51.056;3.698;2022-09-09T14:53:44;25.00;59.70
70076;DHT22;63241;51.056;3.698;2022-09-09T14:56:17;24.90;60.20
70076;DHT22;63241;51.056;3.698;2022-09-09T14:59:06;24.90;60.90
70076;DHT22;63241;51.056;3.698;2022-09-09T15:01:57;25.10;60.60
70076;DHT22;63241;51.056;3.698;2022-09-09T15:04:45;25.30;58.90
70076;DHT22;63241;51.056;3.698;2022-09-09T15:07:41;25.40;58.40
70076;DHT22;63241;51.056;3.698;2022-09-09T15:10:29;25.50;58.40
70076;DHT22;63241;51.056;3.698;2022-09-09T15:13:17;25.60;58.80
70076;DHT22;63241;51.056;3.698;2022-09-09T15:18:59;25.60;57.90
70076;DHT22;63241;51.056;3.698;2022-09-09T15:22:05;25.50;57.40
70076;DHT22;63241;51.056;3.698;2022-09-09T15:24:52;25.00;58.10
70076;DHT22;63241;51.056;3.698;2022-09-09T15:27:40;24.70;59.10
70076;DHT22;63241;51.056;3.698;2022-09-09T15:30:28;24.60;59.70
70076;DHT22;63241;51.056;3.698;2022-09-09T15:33:16;24.40;59.60
70076;DHT22;63241;51.056;3.698;2022-09-09T15:39:11;23.90;58.80
70076;DHT22;63241;51.056;3.698;2022-09-09T15:44:26;23.20;59.90
70076;DHT22;63241;51.056;3.698;2022-09-09T15:47:13;22.80;61.60
70076;DHT22;63241;51.056;3.698;2022-09-09T15:50:01;22.50;63.60
70076;DHT22;63241;51.056;3.698;2022-09-09T15:52:48;22.30;64.10
70076;DHT22;63241;51.056;3.698;2022-09-09T15:55:37;22.20;64.40
70076;DHT22;63241;51.056;3.698;2022-09-09T15:58:29;22.20;65.60
70076;DHT22;63241;51.056;3.698;2022-09-09T16:01:17;22.20;65.70
70076;DHT22;63241;51.056;3.698;2022-09-09T16:04:17;22.30;65.60
70076;DHT22;63241;51.056;3.698;2022-09-09T16:07:06;22.30;65.00
70076;DHT22;63241;51.056;3.698;2022-09-09T16:09:55;22.40;64.90
70076;DHT22;63241;51.056;3.698;2022-09-09T16:12:42;22.70;64.90
70076;DHT22;63241;51.056;3.698;2022-09-09T16:15:30;22.90;64.00
70076;DHT22;63241;51.056;3.698;2022-09-09T16:18:18;23.00;62.20
70076;DHT22;63241;51.056;3.698;2022-09-09T16:21:07;23.10;61.40
70076;DHT22;63241;51.056;3.698;2022-09-09T16:23:37;23.00;61.20
70076;DHT22;63241;51.056;3.698;2022-09-09T16:26:26;22.90;61.50
70076;DHT22;63241;51.056;3.698;2022-09-09T16:29:16;23.00;61.20
70076;DHT22;63241;51.056;3.698;2022-09-09T16:32:05;22.80;62.00
70076;DHT22;63241;51.056;3.698;2022-09-09T16:34:52;22.60;63.20
70076;DHT22;63241;51.056;3.698;2022-09-09T16:37:40;22.30;64.20
70076;DHT22;63241;51.056;3.698;2022-09-09T16:40:29;22.20;64.90
70076;DHT22;63241;51.056;3.698;2022-09-09T16:43:16;22.10;65.50
70076;DHT22;63241;51.056;3.698;2022-09-09T16:49:45;21.90;67.80
70076;DHT22;63241;51.056;3.698;2022-09-09T16:52:33;21.80;67.60
70076;DHT22;63241;51.056;3.698;2022-09-09T16:55:21;21.70;67.90
70076;DHT22;63241;51.056;3.698;2022-09-09T16:58:12;21.50;68.60
70076;DHT22;63241;51.056;3.698;2022-09-09T17:01:02;21.30;69.50
70076;DHT22;63241;51.056;3.698;2022-09-09T17:03:59;21.20;70.90
70076;DHT22;63241;51.056;3.698;2022-09-09T17:06:50;21.10;73.80
70076;DHT22;63241;51.056;3.698;2022-09-09T17:09:37;21.00;77.70
70076;DHT22;63241;51.056;3.698;2022-09-09T17:12:25;20.80;82.10
70076;DHT22;63241;51.056;3.698;2022-09-09T17:15:13;20.40;86.20
70076;DHT22;63241;51.056;3.698;2022-09-09T17:18:19;19.90;89.90
70076;DHT22;63241;51.056;3.698;2022-09-09T17:21:12;19.40;91.70
70076;DHT22;63241;51.056;3.698;2022-09-09T17:23:58;19.00;94.20
70076;DHT22;63241;51.056;3.698;2022-09-09T17:26:47;18.80;96.20
70076;DHT22;63241;51.056;3.698;2022-09-09T17:29:35;18.80;97.10
70076;DHT22;63241;51.056;3.698;2022-09-09T17:32:21;18.80;97.60
70076;DHT22;63241;51.056;3.698;2022-09-09T17:35:09;18.90;98.80
70076;DHT22;63241;51.056;3.698;2022-09-09T17:37:57;18.80;99.10
70076;DHT22;63241;51.056;3.698;2022-09-09T17:43:11;18.60;99.30
70076;DHT22;63241;51.056;3.698;2022-09-09T17:46:24;18.40;99.90
70076;DHT22;63241;51.056;3.698;2022-09-09T17:49:13;18.30;99.90
70076;DHT22;63241;51.056;3.698;2022-09-09T17:52:00;18.10;99.90
70076;DHT22;63241;51.056;3.698;2022-09-09T17:54:48;18.00;99.90
70076;DHT22;63241;51.056;3.698;2022-09-09T17:57:34;17.90;99.90
70076;DHT22;63241;51.056;3.698;2022-09-09T18:00:24;17.80;99.90
70076;DHT22;63241;51.056;3.698;2022-09-09T18:03:12;17.80;99.90
70076;DHT22;63241;51.056;3.698;2022-09-09T18:06:06;17.70;99.90
70076;DHT22;63241;51.056;3.698;2022-09-09T18:08:59;17.60;99.90
70076;DHT22;63241;51.056;3.698;2022-09-09T18:11:51;17.50;99.90
70076;DHT22;63241;51.056;3.698;2022-09-09T18:14:40;17.50;99.90
70076;DHT22;63241;51.056;3.698;2022-09-09T18:17:28;17.40;99.90
70076;DHT22;63241;51.056;3.698;2022-09-09T18:20:16;17.40;99.90
70076;DHT22;63241;51.056;3.698;2022-09-09T18:23:04;17.30;99.90
70076;DHT22;63241;51.056;3.698;2022-09-09T18:25:52;17.20;99.90
70076;DHT22;63241;51.056;3.698;2022-09-09T18:28:41;17.20;99.90
70076;DHT22;63241;51.056;3.698;2022-09-09T18:31:30;17.10;99.90
70076;DHT22;63241;51.056;3.698;2022-09-09T18:34:19;17.00;99.90
70076;DHT22;63241;51.056;3.698;2022-09-09T18:37:26;16.90;99.90
70076;DHT22;63241;51.056;3.698;2022-09-09T18:40:13;16.80;99.90
70076;DHT22;63241;51.056;3.698;2022-09-09T18:43:01;16.80;99.90
70076;DHT22;63241;51.056;3.698;2022-09-09T18:45:49;16.70;99.90
70076;DHT22;63241;51.056;3.698;2022-09-09T18:48:37;16.70;99.90
70076;DHT22;63241;51.056;3.698;2022-09-09T18:51:30;16.60;99.90
70076;DHT22;63241;51.056;3.698;2022-09-09T18:54:19;16.50;99.90
70076;DHT22;63241;51.056;3.698;2022-09-09T18:57:13;16.50;99.90
70076;DHT22;63241;51.056;3.698;2022-09-09T19:00:00;16.40;99.90
70076;DHT22;63241;51.056;3.698;2022-09-09T19:02:48;16.40;99.90
70076;DHT22;63241;51.056;3.698;2022-09-09T19:05:42;16.30;99.90
70076;DHT22;63241;51.056;3.698;2022-09-09T19:08:29;16.30;99.90
70076;DHT22;63241;51.056;3.698;2022-09-09T19:11:20;16.20;99.90
70076;DHT22;63241;51.056;3.698;2022-09-09T19:14:11;16.10;99.90
70076;DHT22;63241;51.056;3.698;2022-09-09T19:16:59;16.10;99.90
70076;DHT22;63241;51.056;3.698;2022-09-09T19:19:46;16.10;99.90
70076;DHT22;63241;51.056;3.698;2022-09-09T19:22:35;16.10;99.90
70076;DHT22;63241;51.056;3.698;2022-09-09T19:25:24;16.10;99.90
70076;DHT22;63241;51.056;3.698;2022-09-09T19:27:55;16.00;99.90
70076;DHT22;63241;51.056;3.698;2022-09-09T19:30:43;16.00;99.90
70076;DHT22;63241;51.056;3.698;2022-09-09T19:33:32;16.00;99.90
70076;DHT22;63241;51.056;3.698;2022-09-09T19:36:21;16.00;99.90
70076;DHT22;63241;51.056;3.698;2022-09-09T19:39:11;16.00;99.90
70076;DHT22;63241;51.056;3.698;2022-09-09T19:41:59;16.00;99.90
70076;DHT22;63241;51.056;3.698;2022-09-09T19:44:49;16.00;99.90
70076;DHT22;63241;51.056;3.698;2022-09-09T19:47:40;16.00;99.90
70076;DHT22;63241;51.056;3.698;2022-09-09T19:50:28;16.00;99.90
70076;DHT22;63241;51.056;3.698;2022-09-09T19:52:57;15.90;99.90
70076;DHT22;63241;51.056;3.698;2022-09-09T19:55:49;15.90;99.90
70076;DHT22;63241;51.056;3.698;2022-09-09T19:58:37;15.90;99.90
70076;DHT22;63241;51.056;3.698;2022-09-09T20:01:35;15.90;99.90
70076;DHT22;63241;51.056;3.698;2022-09-09T20:04:19;15.90;99.90
70076;DHT22;63241;51.056;3.698;2022-09-09T20:07:05;15.90;99.90
70076;DHT22;63241;51.056;3.698;2022-09-09T20:09:55;16.00;99.90
70076;DHT22;63241;51.056;3.698;2022-09-09T20:12:41;16.10;99.90
70076;DHT22;63241;51.056;3.698;2022-09-09T20:15:29;16.10;99.90
70076;DHT22;63241;51.056;3.698;2022-09-09T20:18:17;16.10;99.90
70076;DHT22;63241;51.056;3.698;2022-09-09T20:20:44;16.10;99.90
70076;DHT22;63241;51.056;3.698;2022-09-09T20:23:33;16.20;99.90
70076;DHT22;63241;51.056;3.698;2022-09-09T20:26:24;16.20;99.90
70076;DHT22;63241;51.056;3.698;2022-09-09T20:29:13;16.20;99.90
70076;DHT22;63241;51.056;3.698;2022-09-09T20:32:01;16.30;99.90